Mammoth, Utah
Current Conditions -  °F | °C
As of 12:55 AM on Monday 22 Dec 2014 (Local Time) from KDTA Reporting Station
Overcast Overcast  
Wind Chill: 36°   Ceiling: 2100
Heat Index: 43°   Visibility: 10mi
Dew Point: 40°   Wind: 12mph
Humidity: 92%   Direction: 20°NNE
Pressure: 30.06"   Gusts: NA
Location:  39.7579°N, 112.326°W
Report Text: KDTA 220755Z AUTO 02010KT 10SM BKN021 BKN028 OVC033 06/05 A3006 RMK AO1 T00590047
Loading
Personal Weather Stations






























Interactive Weather Map New forecast layout! Learn more

10-Day Weather Forecast

Advertisements
Track Severe Weather on mobile